Time;durP1;ratioP1;P1;durP2;ratioP2;P2;SDS_P1;SDS_P2;PMS_P1;PMS_P2;Temp;Humidity;BMP_temperature;BMP_pressure;BME280_temperature;BME280_humidity;BME280_pressure;Samples;Min_cycle;Max_cycle;Signal;HPM_P1;HPM_P2
2023/07/09 00:01:41;;;;;;;9.65;4.93;;;18.80;99.90;;;;;;5035225;28;20064;-56
2023/07/09 00:04:10;;;;;;;;;;;18.80;99.90;;;;;;5038478;28;20735;-58
2023/07/09 00:06:36;;;;;;;9.70;5.30;;;18.70;99.90;;;;;;5038330;28;20015;-60
2023/07/09 00:09:02;;;;;;;;;;;18.70;99.90;;;;;;5038524;28;20136;-60
2023/07/09 00:11:28;;;;;;;8.90;4.97;;;18.60;99.90;;;;;;5036784;28;20003;-66
2023/07/09 00:13:53;;;;;;;12.35;6.15;;;18.60;99.90;;;;;;5037360;28;20098;-63
2023/07/09 00:16:21;;;;;;;;;;;18.50;99.90;;;;;;5038362;28;20045;-55
2023/07/09 00:18:48;;;;;;;9.00;5.47;;;18.50;99.90;;;;;;5019595;28;19927;-59
2023/07/09 00:21:16;;;;;;;14.55;5.75;;;18.40;99.90;;;;;;5024647;28;20033;-58
2023/07/09 00:23:42;;;;;;;9.23;5.35;;;18.40;99.90;;;;;;5026579;28;20041;-60
2023/07/09 00:26:13;;;;;;;;;;;18.40;99.90;;;;;;5022494;28;20049;-61
2023/07/09 00:28:42;;;;;;;8.95;4.90;;;18.40;99.90;;;;;;5024853;28;19971;-57
2023/07/09 00:31:13;;;;;;;7.30;5.28;;;18.30;99.90;;;;;;5023226;28;20041;-60
2023/07/09 00:33:39;;;;;;;14.43;6.43;;;18.30;99.90;;;;;;5025075;28;20041;-52
2023/07/09 00:36:10;;;;;;;;;;;18.30;99.90;;;;;;5021442;28;20030;-61
2023/07/09 00:38:38;;;;;;;9.82;4.75;;;18.30;99.90;;;;;;5017274;28;20072;-56
2023/07/09 00:41:06;;;;;;;10.45;4.90;;;18.30;99.90;;;;;;5022649;28;20037;-62
2023/07/09 00:43:37;;;;;;;12.10;5.78;;;18.30;99.90;;;;;;5023296;28;20061;-56
2023/07/09 00:46:37;;;;;;;10.75;5.10;;;18.30;99.90;;;;;;5023539;28;20046;-57
2023/07/09 00:49:06;;;;;;;10.27;5.43;;;18.20;99.90;;;;;;5019629;28;20044;-60
2023/07/09 00:51:41;;;;;;;10.70;5.63;;;18.20;99.90;;;;;;5023137;28;20068;-59
2023/07/09 00:54:22;;;;;;;10.30;5.43;;;18.20;99.90;;;;;;5023140;28;20029;-57
2023/07/09 00:56:52;;;;;;;9.15;4.95;;;18.20;99.90;;;;;;5019167;28;20144;-58
2023/07/09 00:59:21;;;;;;;11.07;5.13;;;18.20;99.90;;;;;;5024532;28;20148;-61
2023/07/09 01:01:50;;;;;;;10.88;4.97;;;18.10;99.90;;;;;;5014853;28;20038;-62
2023/07/09 01:04:19;;;;;;;8.95;4.88;;;18.10;99.90;;;;;;5024461;28;20105;-58
2023/07/09 01:06:50;;;;;;;9.10;4.63;;;18.10;99.90;;;;;;5015386;28;20045;-54
2023/07/09 01:09:16;;;;;;;8.40;4.88;;;18.10;99.90;;;;;;5023855;28;20501;-54
2023/07/09 01:11:42;;;;;;;7.55;4.60;;;18.10;99.90;;;;;;5022073;28;20037;-58
2023/07/09 01:14:10;;;;;;;;;;;18.10;99.90;;;;;;5024042;28;20041;-58
2023/07/09 01:16:38;;;;;;;7.38;4.22;;;18.10;99.90;;;;;;5023390;28;19917;-58
2023/07/09 01:19:05;;;;;;;9.20;5.15;;;18.00;99.90;;;;;;5023897;28;20616;-59
2023/07/09 01:21:32;;;;;;;7.80;4.13;;;18.00;99.90;;;;;;5024046;28;20368;-59
2023/07/09 01:23:58;;;;;;;15.40;5.10;;;18.00;99.90;;;;;;5023488;28;20048;-61
2023/07/09 01:26:25;;;;;;;;;;;18.00;99.90;;;;;;5022082;28;20092;-57
2023/07/09 01:28:52;;;;;;;8.68;4.78;;;18.00;99.90;;;;;;5023053;28;20469;-60
2023/07/09 01:31:17;;;;;;;10.93;5.28;;;17.90;99.90;;;;;;5020357;28;20108;-62
2023/07/09 01:33:47;;;;;;;;;;;17.90;99.90;;;;;;5023930;28;20041;-58
2023/07/09 01:36:23;;;;;;;8.40;5.00;;;17.80;99.90;;;;;;5022667;28;19960;-60
2023/07/09 01:38:49;;;;;;;7.38;4.80;;;17.80;99.90;;;;;;5023789;28;20409;-59
2023/07/09 01:41:16;;;;;;;11.30;5.35;;;17.80;99.90;;;;;;5023185;28;20041;-61
2023/07/09 01:43:42;;;;;;;11.18;6.00;;;17.70;99.90;;;;;;5022637;28;20040;-54
2023/07/09 01:46:12;;;;;;;11.02;5.25;;;17.70;99.90;;;;;;5018706;28;20045;-62
2023/07/09 01:48:41;;;;;;;10.02;4.70;;;17.70;99.90;;;;;;5023098;28;20149;-57
2023/07/09 01:51:12;;;;;;;7.35;4.60;;;17.70;99.90;;;;;;5016744;28;20036;-60
2023/07/09 01:53:39;;;;;;;10.75;5.15;;;17.60;99.90;;;;;;5015398;28;20498;-60
2023/07/09 01:56:08;;;;;;;9.05;4.22;;;17.60;99.90;;;;;;5023030;28;20655;-58
2023/07/09 01:58:34;;;;;;;11.20;5.22;;;17.70;99.90;;;;;;5015344;28;20575;-60
2023/07/09 02:01:00;;;;;;;;;;;17.60;99.90;;;;;;5022743;28;20712;-60
2023/07/09 02:03:26;;;;;;;7.38;4.82;;;17.60;99.90;;;;;;5022357;28;19994;-58
2023/07/09 02:05:54;;;;;;;;;;;17.70;99.90;;;;;;5022758;28;20049;-61
2023/07/09 02:08:20;;;;;;;11.30;4.65;;;17.70;99.90;;;;;;5019769;28;19921;-62
2023/07/09 02:10:49;;;;;;;;;;;17.60;99.90;;;;;;5023933;28;20048;-60
2023/07/09 02:13:16;;;;;;;11.35;4.63;;;17.60;99.90;;;;;;5021053;28;19921;-62
2023/07/09 02:15:43;;;;;;;10.88;5.05;;;17.60;99.90;;;;;;5016640;28;20398;-57
2023/07/09 02:18:13;;;;;;;8.35;4.20;;;17.60;99.90;;;;;;5021430;28;20104;-60
2023/07/09 02:20:39;;;;;;;7.38;4.00;;;17.60;99.90;;;;;;5018710;28;20038;-60
2023/07/09 02:23:06;;;;;;;;;;;17.50;99.90;;;;;;5018487;28;20516;-60
2023/07/09 02:25:31;;;;;;;11.18;4.20;;;17.50;99.90;;;;;;5021835;28;19928;-58
2023/07/09 02:27:58;;;;;;;;;;;17.50;99.90;;;;;;5021113;28;20037;-49
2023/07/09 02:30:23;;;;;;;6.43;3.85;;;17.50;99.90;;;;;;5019599;28;19924;-60
2023/07/09 02:32:49;;;;;;;;;;;17.50;99.90;;;;;;5018639;28;20030;-55
2023/07/09 02:35:14;;;;;;;9.63;4.38;;;17.50;99.90;;;;;;5021627;28;20556;-57
2023/07/09 02:37:40;;;;;;;;;;;17.40;99.90;;;;;;5021573;28;20137;-61
2023/07/09 02:40:08;;;;;;;7.53;4.05;;;17.40;99.90;;;;;;5023072;28;20301;-61
2023/07/09 02:42:34;;;;;;;6.97;4.03;;;17.40;99.90;;;;;;5020871;28;20126;-59
2023/07/09 02:44:59;;;;;;;;;;;17.40;99.90;;;;;;5022708;28;20120;-60
2023/07/09 02:47:25;;;;;;;14.00;4.03;;;17.40;99.90;;;;;;5021748;28;20014;-62
2023/07/09 02:49:50;;;;;;;7.32;4.07;;;17.40;99.90;;;;;;5021990;28;20037;-61
2023/07/09 02:52:16;;;;;;;;;;;17.30;99.90;;;;;;5022425;28;20080;-59
2023/07/09 02:54:42;;;;;;;10.60;4.55;;;17.30;99.90;;;;;;5022192;28;19921;-59
2023/07/09 02:57:07;;;;;;;;;;;17.30;99.90;;;;;;5016890;28;20041;-59
2023/07/09 02:59:33;;;;;;;9.85;4.20;;;17.30;99.90;;;;;;5020159;28;19921;-61
2023/07/09 03:02:00;;;;;;;7.20;3.85;;;17.30;99.90;;;;;;5022409;28;20061;-60
2023/07/09 03:04:26;;;;;;;7.18;4.07;;;17.30;99.90;;;;;;5022929;28;20053;-60
2023/07/09 03:06:52;;;;;;;;;;;17.30;99.90;;;;;;5022153;28;20038;-62
2023/07/09 03:09:18;;;;;;;9.70;3.65;;;17.30;99.90;;;;;;5022313;28;19928;-59
2023/07/09 03:11:44;;;;;;;7.63;4.47;;;17.30;99.90;;;;;;5021652;28;20025;-60
2023/07/09 03:14:10;;;;;;;;;;;17.30;99.90;;;;;;5020913;28;20236;-58
2023/07/09 03:16:36;;;;;;;5.90;3.65;;;17.30;99.90;;;;;;5021056;28;19963;-59
2023/07/09 03:19:04;;;;;;;7.38;4.22;;;17.30;99.90;;;;;;5022803;28;20468;-52
2023/07/09 03:21:30;;;;;;;11.70;4.65;;;17.30;99.90;;;;;;5017903;28;20709;-60
2023/07/09 03:23:57;;;;;;;9.68;4.50;;;17.30;99.90;;;;;;5018526;28;20374;-55
2023/07/09 03:26:25;;;;;;;8.05;4.03;;;17.30;99.90;;;;;;5016974;28;20038;-62
2023/07/09 03:28:51;;;;;;;10.52;3.78;;;17.30;99.90;;;;;;5021919;28;20108;-62
2023/07/09 03:31:17;;;;;;;8.05;4.18;;;17.40;99.90;;;;;;5021227;28;20057;-61
2023/07/09 03:33:43;;;;;;;7.07;4.20;;;17.30;99.90;;;;;;5023024;28;20076;-58
2023/07/09 03:36:08;;;;;;;;;;;17.40;99.90;;;;;;5022269;28;20064;-60
2023/07/09 03:38:34;;;;;;;8.40;4.15;;;17.30;99.90;;;;;;5024337;28;19917;-61
2023/07/09 03:41:00;;;;;;;6.78;3.92;;;17.30;99.90;;;;;;5022673;28;20477;-62
2023/07/09 03:43:26;;;;;;;;;;;17.30;99.90;;;;;;5023469;28;20685;-57
2023/07/09 03:45:51;;;;;;;12.27;4.53;;;17.30;99.90;;;;;;5023531;28;19917;-62
2023/07/09 03:48:18;;;;;;;;;;;17.30;99.90;;;;;;5022127;28;20402;-52
2023/07/09 03:50:46;;;;;;;8.13;4.10;;;17.30;99.90;;;;;;5030135;28;19959;-61
2023/07/09 03:53:12;;;;;;;6.57;3.88;;;17.40;99.90;;;;;;5021962;28;20035;-58
2023/07/09 03:55:38;;;;;;;7.82;4.53;;;17.40;99.90;;;;;;5025047;28;20093;-59
2023/07/09 03:58:04;;;;;;;;;;;17.30;99.90;;;;;;5025517;28;20247;-62
2023/07/09 04:00:30;;;;;;;6.05;4.13;;;17.40;99.90;;;;;;5025050;28;19913;-58
2023/07/09 04:02:56;;;;;;;10.98;4.43;;;17.40;99.90;;;;;;5023933;28;20029;-56
2023/07/09 04:05:25;;;;;;;;;;;17.40;99.90;;;;;;5025496;28;20048;-60
2023/07/09 04:07:50;;;;;;;10.35;4.80;;;17.40;99.90;;;;;;5024726;28;20387;-61
2023/07/09 04:10:16;;;;;;;;;;;17.40;99.90;;;;;;5027174;28;20064;-60
2023/07/09 04:12:42;;;;;;;4.78;3.60;;;17.40;99.90;;;;;;5024597;28;20083;-62
2023/07/09 04:15:08;;;;;;;;;;;17.50;99.90;;;;;;5026326;28;20025;-61
2023/07/09 04:17:34;;;;;;;7.45;4.25;;;17.50;99.90;;;;;;5024811;28;19920;-54
2023/07/09 04:20:00;;;;;;;9.13;4.20;;;17.50;99.90;;;;;;5026176;28;20029;-64
2023/07/09 04:22:26;;;;;;;;;;;17.60;99.90;;;;;;5025228;28;20037;-60
2023/07/09 04:24:54;;;;;;;8.63;4.47;;;17.60;99.90;;;;;;5023817;28;20572;-61
2023/07/09 04:27:21;;;;;;;8.93;4.20;;;17.60;99.90;;;;;;5022733;28;20037;-54
2023/07/09 04:29:47;;;;;;;8.10;4.15;;;17.70;99.90;;;;;;5025140;28;20043;-62
2023/07/09 04:32:14;;;;;;;7.93;4.38;;;17.70;99.90;;;;;;5025194;28;20041;-60
2023/07/09 04:34:40;;;;;;;7.25;4.13;;;17.60;99.90;;;;;;5025793;28;20112;-58
2023/07/09 04:37:07;;;;;;;;;;;17.70;99.90;;;;;;5025209;28;20129;-59
2023/07/09 04:39:33;;;;;;;8.45;4.22;;;17.90;99.90;;;;;;5026686;28;19912;-58
2023/07/09 04:41:59;;;;;;;8.07;4.40;;;18.10;99.90;;;;;;5024744;28;20078;-59
2023/07/09 04:44:24;;;;;;;;;;;18.10;99.90;;;;;;5025703;28;20100;-61
2023/07/09 04:46:50;;;;;;;8.98;4.60;;;18.20;99.90;;;;;;5025054;28;19917;-60
2023/07/09 04:49:16;;;;;;;6.00;3.90;;;18.20;99.90;;;;;;5026004;28;20065;-61
2023/07/09 04:51:42;;;;;;;;;;;18.30;99.90;;;;;;5024848;28;20128;-59
2023/07/09 04:54:07;;;;;;;7.68;4.50;;;18.40;99.90;;;;;;5025504;28;19913;-57
2023/07/09 04:56:33;;;;;;;9.68;4.03;;;18.40;99.90;;;;;;5025481;28;20061;-56
2023/07/09 04:58:59;;;;;;;;;;;18.90;99.90;;;;;;5025332;28;20030;-57
2023/07/09 05:01:24;;;;;;;5.55;3.63;;;19.00;99.90;;;;;;5024273;28;19924;-59
2023/07/09 05:03:50;;;;;;;6.82;4.05;;;19.00;99.90;;;;;;5022606;28;20053;-61
2023/07/09 05:06:16;;;;;;;10.20;5.15;;;19.00;99.90;;;;;;5021195;28;20033;-61
2023/07/09 05:08:42;;;;;;;15.50;4.82;;;19.00;99.90;;;;;;5022287;28;20027;-59
2023/07/09 05:11:10;;;;;;;8.13;3.67;;;19.00;99.90;;;;;;5022792;28;20033;-60
2023/07/09 05:13:36;;;;;;;10.23;4.43;;;19.10;99.90;;;;;;5024580;28;20044;-60
2023/07/09 05:16:02;;;;;;;;;;;19.10;99.90;;;;;;5018574;28;20056;-60
2023/07/09 05:18:27;;;;;;;5.50;3.97;;;19.20;99.90;;;;;;5025167;28;19916;-60
2023/07/09 05:20:55;;;;;;;7.40;4.45;;;19.20;99.90;;;;;;5025926;28;20037;-62
2023/07/09 05:23:21;;;;;;;7.32;4.53;;;19.30;99.90;;;;;;5024958;28;20048;-59
2023/07/09 05:25:46;;;;;;;;;;;19.30;99.90;;;;;;5026436;28;20116;-60
2023/07/09 05:28:12;;;;;;;6.97;3.83;;;19.40;99.90;;;;;;5023232;28;19913;-56
2023/07/09 05:30:41;;;;;;;8.82;5.15;;;19.60;99.90;;;;;;5024810;28;20097;-57
2023/07/09 05:33:07;;;;;;;9.45;4.60;;;19.70;99.90;;;;;;5023856;28;20041;-56
2023/07/09 05:35:33;;;;;;;;;;;19.90;99.90;;;;;;5023337;28;20021;-60
2023/07/09 05:37:58;;;;;;;12.20;4.78;;;20.10;99.90;;;;;;5024704;28;20000;-57
2023/07/09 05:40:24;;;;;;;9.25;4.18;;;20.50;99.90;;;;;;5025655;28;20508;-57
2023/07/09 05:42:49;;;;;;;8.43;4.53;;;20.70;99.90;;;;;;5024450;28;20108;-58
2023/07/09 05:45:15;;;;;;;6.07;4.18;;;20.70;99.90;;;;;;5024486;28;20125;-53
2023/07/09 05:47:42;;;;;;;7.35;4.20;;;20.80;99.90;;;;;;5023726;28;20064;-60
2023/07/09 05:50:08;;;;;;;6.20;4.65;;;20.80;99.90;;;;;;5024501;28;20097;-56
2023/07/09 05:52:33;;;;;;;8.73;4.35;;;20.90;99.90;;;;;;5024155;28;20033;-62
2023/07/09 05:54:59;;;;;;;6.82;4.30;;;21.00;99.90;;;;;;5024850;28;20793;-61
2023/07/09 05:57:25;;;;;;;7.72;4.18;;;21.10;99.90;;;;;;5022426;28;20037;-60
2023/07/09 05:59:51;;;;;;;5.40;4.03;;;21.10;99.90;;;;;;5020460;28;20137;-60
2023/07/09 06:02:19;;;;;;;6.95;4.57;;;21.10;99.90;;;;;;5022701;28;20499;-59
2023/07/09 06:04:45;;;;;;;8.82;4.70;;;21.20;99.90;;;;;;5020346;28;20064;-61
2023/07/09 06:07:13;;;;;;;8.35;4.22;;;21.30;99.90;;;;;;5022583;28;20068;-60
2023/07/09 06:09:39;;;;;;;12.35;5.03;;;21.40;99.90;;;;;;5021884;28;20052;-59
2023/07/09 06:12:23;;;;;;;8.23;4.60;;;21.40;99.90;;;;;;5021868;28;20048;-59
2023/07/09 06:15:10;;;;;;;7.57;4.53;;;21.50;99.90;;;;;;5013739;28;20029;-59
2023/07/09 06:17:56;;;;;;;8.32;5.07;;;21.60;99.90;;;;;;5006290;28;20529;-55
2023/07/09 06:20:47;;;;;;;8.70;4.43;;;21.70;99.90;;;;;;5015805;28;20111;-59
2023/07/09 06:23:14;;;;;;;7.65;4.88;;;22.00;99.90;;;;;;5019805;28;20087;-62
2023/07/09 06:25:40;;;;;;;9.30;4.53;;;22.30;99.90;;;;;;5022246;28;20405;-59
2023/07/09 06:28:06;;;;;;;10.95;4.90;;;22.30;99.90;;;;;;5020406;28;20498;-60
2023/07/09 06:30:50;;;;;;;8.13;4.30;;;22.40;99.90;;;;;;5020259;28;20249;-61
2023/07/09 06:33:19;;;;;;;7.28;4.85;;;22.50;99.90;;;;;;5021032;28;20045;-58
2023/07/09 06:35:59;;;;;;;6.97;4.60;;;22.60;99.90;;;;;;5020894;28;20051;-61
2023/07/09 06:38:26;;;;;;;10.13;5.60;;;22.60;99.90;;;;;;5001451;28;20045;-61
2023/07/09 06:40:52;;;;;;;9.75;4.75;;;22.90;99.90;;;;;;5014193;28;20106;-60
2023/07/09 06:43:18;;;;;;;7.93;4.47;;;23.10;99.90;;;;;;5013678;28;20057;-61
2023/07/09 06:45:59;;;;;;;8.63;4.88;;;23.60;99.90;;;;;;5014626;28;20532;-61
2023/07/09 06:48:26;;;;;;;16.33;5.13;;;23.70;99.90;;;;;;5012422;28;20061;-60
2023/07/09 06:50:54;;;;;;;7.32;4.35;;;23.90;99.90;;;;;;5015910;28;20098;-60
2023/07/09 06:53:21;;;;;;;7.65;4.25;;;24.20;99.90;;;;;;5016927;28;20042;-61
2023/07/09 06:55:48;;;;;;;13.48;4.63;;;24.50;99.90;;;;;;5016383;28;20727;-58
2023/07/09 06:58:16;;;;;;;9.27;3.80;;;25.00;99.90;;;;;;5015128;28;20052;-59
2023/07/09 07:00:41;;;;;;;12.30;4.88;;;26.00;98.90;;;;;;5013952;28;20041;-57
2023/07/09 07:03:08;;;;;;;7.97;4.00;;;26.40;97.70;;;;;;5014679;28;20045;-59
2023/07/09 07:05:34;;;;;;;29.90;18.17;;;26.20;97.10;;;;;;5014434;28;20033;-59
2023/07/09 07:08:01;;;;;;;15.27;8.63;;;26.00;97.70;;;;;;5013085;28;20091;-58
2023/07/09 07:10:27;;;;;;;16.33;6.80;;;25.90;96.80;;;;;;5016886;28;20088;-56
2023/07/09 07:12:53;;;;;;;10.40;5.20;;;25.90;97.30;;;;;;5018598;28;20045;-60
2023/07/09 07:15:19;;;;;;;8.65;4.22;;;25.80;96.60;;;;;;5014639;28;20069;-60
2023/07/09 07:17:45;;;;;;;10.10;4.82;;;25.80;96.60;;;;;;5019786;28;20077;-59
2023/07/09 07:20:12;;;;;;;8.98;4.57;;;26.10;97.30;;;;;;5018263;28;20123;-52
2023/07/09 07:22:38;;;;;;;7.35;4.60;;;26.60;97.20;;;;;;5013191;28;20030;-55
2023/07/09 07:25:06;;;;;;;8.30;4.00;;;27.20;96.70;;;;;;5019273;28;20127;-51
2023/07/09 07:27:32;;;;;;;6.78;3.90;;;28.00;96.10;;;;;;5018632;28;20051;-59
2023/07/09 07:29:57;;;;;;;7.93;3.95;;;28.80;94.00;;;;;;5021527;28;20041;-61
2023/07/09 07:32:24;;;;;;;11.35;5.15;;;28.90;88.60;;;;;;5021390;28;20068;-59
2023/07/09 07:34:49;;;;;;;10.77;4.93;;;29.00;84.10;;;;;;5018505;28;20548;-56
2023/07/09 07:37:19;;;;;;;11.38;4.97;;;28.50;92.10;;;;;;5021767;28;20033;-56
2023/07/09 07:39:45;;;;;;;11.80;4.88;;;28.10;86.70;;;;;;5017836;28;20048;-58
2023/07/09 07:42:11;;;;;;;5.90;3.83;;;27.70;85.90;;;;;;5021833;28;20489;-61
2023/07/09 07:44:36;;;;;;;11.65;4.88;;;27.40;87.80;;;;;;5000759;28;20099;-57
2023/07/09 07:47:03;;;;;;;9.32;4.80;;;27.30;88.00;;;;;;5023500;28;20037;-59
2023/07/09 07:49:28;;;;;;;8.85;4.80;;;27.20;85.30;;;;;;5020353;28;20046;-53
2023/07/09 07:51:55;;;;;;;11.25;4.97;;;27.10;86.10;;;;;;5023809;28;20036;-61
2023/07/09 07:54:21;;;;;;;11.40;5.15;;;27.20;83.60;;;;;;5022658;28;20041;-60
2023/07/09 07:56:47;;;;;;;8.18;5.07;;;27.60;80.70;;;;;;5024290;28;20056;-59
2023/07/09 07:59:15;;;;;;;8.23;5.07;;;28.30;81.90;;;;;;5020477;28;20059;-59
2023/07/09 08:01:40;;;;;;;11.00;5.25;;;28.70;77.30;;;;;;5017899;28;20517;-59
2023/07/09 08:04:06;;;;;;;12.75;4.57;;;28.70;77.40;;;;;;5022393;28;20045;-59
2023/07/09 08:06:35;;;;;;;10.20;4.82;;;28.50;75.90;;;;;;5022306;28;20045;-59
2023/07/09 08:09:02;;;;;;;9.70;4.80;;;28.60;76.20;;;;;;5027286;28;20044;-57
2023/07/09 08:11:29;;;;;;;11.50;4.93;;;29.00;77.60;;;;;;4995685;28;20037;-60
2023/07/09 08:13:55;;;;;;;9.38;5.32;;;29.40;73.80;;;;;;5023390;28;20049;-61
2023/07/09 08:16:21;;;;;;;8.48;5.05;;;30.00;73.40;;;;;;5021918;28;20049;-59
2023/07/09 08:18:46;;;;;;;7.85;4.40;;;30.30;75.30;;;;;;5022315;28;20470;-59
2023/07/09 08:21:12;;;;;;;8.27;4.68;;;30.40;75.70;;;;;;5023078;28;20041;-61
2023/07/09 08:23:39;;;;;;;7.72;4.60;;;30.50;74.60;;;;;;5022766;28;20144;-60
2023/07/09 08:26:05;;;;;;;11.48;5.07;;;30.90;70.60;;;;;;5021037;28;20057;-56
2023/07/09 08:28:31;;;;;;;12.25;4.43;;;30.70;71.60;;;;;;5033010;28;20095;-61
2023/07/09 08:30:57;;;;;;;11.88;5.38;;;30.10;72.30;;;;;;5014298;28;20394;-58
2023/07/09 08:33:23;;;;;;;9.68;4.75;;;29.70;72.80;;;;;;5019464;28;20581;-58
2023/07/09 08:35:50;;;;;;;11.05;4.90;;;29.50;74.00;;;;;;5026028;28;20041;-53
2023/07/09 08:38:16;;;;;;;8.52;4.45;;;29.70;74.50;;;;;;5011410;28;20124;-59
2023/07/09 08:40:47;;;;;;;8.90;4.38;;;30.40;73.80;;;;;;5019338;28;20124;-60
2023/07/09 08:43:31;;;;;;;6.80;4.15;;;30.70;72.30;;;;;;5016414;28;20072;-60
2023/07/09 08:46:17;;;;;;;5.80;3.88;;;30.90;70.90;;;;;;5020350;28;20088;-54
2023/07/09 08:48:46;;;;;;;7.05;4.53;;;31.20;70.80;;;;;;5022346;28;20037;-56
2023/07/09 08:51:38;;;;;;;8.35;4.53;;;31.80;69.50;;;;;;5025043;28;20038;-62
2023/07/09 08:54:15;;;;;;;10.77;4.63;;;32.20;69.90;;;;;;5019344;28;20045;-61
2023/07/09 08:56:41;;;;;;;8.20;4.32;;;32.60;65.00;;;;;;5025171;28;20046;-61
2023/07/09 08:59:11;;;;;;;9.27;4.30;;;33.30;65.30;;;;;;5024468;28;20033;-59
2023/07/09 09:01:46;;;;;;;9.07;4.60;;;34.00;65.40;;;;;;5014422;28;20041;-58
2023/07/09 09:04:36;;;;;;;9.77;4.43;;;33.70;65.90;;;;;;5024368;28;20049;-60
2023/07/09 09:07:13;;;;;;;7.68;4.10;;;33.20;67.30;;;;;;5019137;28;20175;-58
2023/07/09 09:10:01;;;;;;;7.40;4.40;;;32.60;63.80;;;;;;5024055;28;20067;-56
2023/07/09 09:13:01;;;;;;;38.03;14.75;;;31.60;65.40;;;;;;5022648;28;20029;-60
2023/07/09 09:15:27;;;;;;;9.77;4.40;;;31.10;69.00;;;;;;5016904;28;20073;-54
2023/07/09 09:17:59;;;;;;;9.95;4.25;;;30.80;69.60;;;;;;5021770;28;20497;-59
2023/07/09 09:20:28;;;;;;;14.98;4.10;;;30.60;68.60;;;;;;5023621;28;20050;-59
2023/07/09 09:23:15;;;;;;;7.35;3.97;;;30.30;68.70;;;;;;5023184;28;20119;-60
2023/07/09 09:25:47;;;;;;;8.32;4.05;;;30.30;71.10;;;;;;5016765;28;20140;-55
2023/07/09 09:28:14;;;;;;;7.57;4.10;;;30.20;72.30;;;;;;5022614;28;20045;-59
2023/07/09 09:30:39;;;;;;;5.90;3.95;;;30.20;71.10;;;;;;5023636;28;20061;-58
2023/07/09 09:33:08;;;;;;;12.73;4.15;;;30.20;71.00;;;;;;5022934;28;20069;-58
2023/07/09 09:35:37;;;;;;;9.90;4.30;;;30.10;69.60;;;;;;5022931;28;20041;-59
2023/07/09 09:38:10;;;;;;;7.97;4.07;;;30.10;69.70;;;;;;5021750;28;20033;-56
2023/07/09 09:40:37;;;;;;;8.05;4.05;;;30.10;71.60;;;;;;5024242;28;20056;-52
2023/07/09 09:43:09;;;;;;;8.13;4.25;;;30.10;72.30;;;;;;5022054;28;20095;-51
2023/07/09 09:45:41;;;;;;;9.18;4.30;;;30.20;72.30;;;;;;5021759;28;20548;-56
2023/07/09 09:48:15;;;;;;;6.00;3.78;;;30.30;71.30;;;;;;5021402;28;20030;-58
2023/07/09 09:50:41;;;;;;;10.02;5.07;;;30.40;73.80;;;;;;5022746;28;20044;-59
2023/07/09 09:53:09;;;;;;;8.32;4.43;;;30.30;72.30;;;;;;5022106;28;20041;-56
2023/07/09 09:55:35;;;;;;;11.95;4.97;;;30.20;72.70;;;;;;5022276;28;20045;-55
2023/07/09 09:58:02;;;;;;;10.77;4.72;;;30.20;71.40;;;;;;5021906;28;20038;-60
2023/07/09 10:00:33;;;;;;;10.02;4.28;;;30.20;75.00;;;;;;5021072;28;20034;-58
2023/07/09 10:03:05;;;;;;;10.02;4.88;;;30.20;72.20;;;;;;5022536;28;20060;-58
2023/07/09 10:05:38;;;;;;;7.60;4.30;;;30.30;73.60;;;;;;5022604;28;20401;-60
2023/07/09 10:08:44;;;;;;;15.15;5.13;;;30.20;72.30;;;;;;5017155;28;20041;-59
2023/07/09 10:11:41;;;;;;;10.43;4.22;;;30.30;76.00;;;;;;5031872;28;20060;-55
2023/07/09 10:14:22;;;;;;;8.77;4.47;;;30.30;71.30;;;;;;5017113;28;20124;-56
2023/07/09 10:16:53;;;;;;;11.07;4.70;;;30.30;73.10;;;;;;5018367;28;20120;-57
2023/07/09 10:19:43;;;;;;;7.80;3.95;;;30.30;70.70;;;;;;5023466;28;20103;-58
2023/07/09 10:22:19;;;;;;;8.80;4.18;;;30.20;71.10;;;;;;5019311;28;20040;-60
2023/07/09 10:25:06;;;;;;;11.10;3.67;;;30.40;70.70;;;;;;5022428;28;20129;-59
2023/07/09 10:28:00;;;;;;;5.70;3.47;;;30.60;70.90;;;;;;5022464;28;20046;-57
2023/07/09 10:30:34;;;;;;;6.85;3.53;;;30.70;68.80;;;;;;5021115;28;20544;-59
2023/07/09 10:33:08;;;;;;;7.10;3.90;;;30.70;69.90;;;;;;5016218;28;20086;-54
2023/07/09 10:35:54;;;;;;;5.20;3.35;;;30.80;70.60;;;;;;5016629;28;20120;-60
2023/07/09 10:38:49;;;;;;;9.70;4.20;;;30.70;67.40;;;;;;5011129;28;20060;-55
2023/07/09 10:41:17;;;;;;;8.40;3.80;;;30.80;65.90;;;;;;5014869;28;20046;-55
2023/07/09 10:44:11;;;;;;;7.43;3.90;;;30.60;67.50;;;;;;5014230;28;20046;-57
2023/07/09 10:46:40;;;;;;;6.88;3.67;;;30.30;70.90;;;;;;5014492;28;20041;-61
2023/07/09 10:49:11;;;;;;;7.40;3.53;;;30.50;72.90;;;;;;5012793;28;20112;-60
2023/07/09 10:51:54;;;;;;;8.48;4.78;;;30.70;68.10;;;;;;5009769;28;20128;-59
2023/07/09 10:54:50;;;;;;;8.50;3.83;;;30.80;68.30;;;;;;5017015;28;20672;-59
2023/07/09 10:57:50;;;;;;;5.28;3.05;;;30.90;66.40;;;;;;5007055;28;20049;-59
2023/07/09 11:00:19;;;;;;;6.78;3.88;;;30.90;68.80;;;;;;5014854;28;20131;-58
2023/07/09 11:02:47;;;;;;;8.43;3.35;;;30.90;66.30;;;;;;5019359;28;20037;-59
2023/07/09 11:05:13;;;;;;;5.85;3.53;;;30.80;67.90;;;;;;5018666;28;20103;-58
2023/07/09 11:08:02;;;;;;;9.45;3.50;;;30.70;69.40;;;;;;5010598;28;20478;-61
2023/07/09 11:10:41;;;;;;;9.73;3.28;;;30.80;69.10;;;;;;5012993;28;20049;-61
2023/07/09 11:13:15;;;;;;;6.85;3.42;;;31.00;71.40;;;;;;5019550;28;20040;-58
2023/07/09 11:15:44;;;;;;;6.07;3.38;;;31.10;66.60;;;;;;5011768;28;20033;-61
2023/07/09 11:18:21;;;;;;;10.18;3.70;;;31.30;68.20;;;;;;5011173;28;20498;-60
2023/07/09 11:20:58;;;;;;;9.07;3.67;;;31.30;64.70;;;;;;5012263;28;20527;-59
2023/07/09 11:23:25;;;;;;;6.85;3.03;;;31.10;65.70;;;;;;5010719;28;20057;-61
2023/07/09 11:26:13;;;;;;;10.07;4.00;;;30.80;67.60;;;;;;5013885;28;20100;-58
2023/07/09 11:28:40;;;;;;;7.93;3.47;;;30.90;68.80;;;;;;5012345;28;20042;-61
2023/07/09 11:31:21;;;;;;;9.13;3.90;;;31.00;65.10;;;;;;5015382;28;20620;-62
2023/07/09 11:33:58;;;;;;;5.78;3.40;;;30.90;70.40;;;;;;5017093;28;20069;-57
2023/07/09 11:36:26;;;;;;;8.35;3.60;;;30.60;68.30;;;;;;5014853;28;20153;-60
2023/07/09 11:38:53;;;;;;;7.13;4.10;;;30.60;68.00;;;;;;5019119;28;20043;-60
2023/07/09 11:41:33;;;;;;;7.10;4.07;;;30.50;70.70;;;;;;5019326;28;20069;-62
2023/07/09 11:44:10;;;;;;;9.30;4.38;;;30.50;70.40;;;;;;5017486;28;20843;-61
2023/07/09 11:46:49;;;;;;;10.30;4.03;;;30.50;72.80;;;;;;5012481;28;20056;-61
2023/07/09 11:49:15;;;;;;;6.65;4.00;;;30.60;73.30;;;;;;5016749;28;20064;-60
2023/07/09 11:51:45;;;;;;;14.00;4.10;;;30.30;70.20;;;;;;5013988;28;20155;-60
2023/07/09 11:54:13;;;;;;;5.68;4.32;;;30.50;73.20;;;;;;5014321;28;20048;-60
2023/07/09 11:56:39;;;;;;;11.60;5.00;;;30.50;71.80;;;;;;5012933;28;20092;-58
2023/07/09 11:59:05;;;;;;;11.32;4.65;;;30.40;72.80;;;;;;5018492;28;20053;-61
2023/07/09 12:01:44;;;;;;;7.82;4.13;;;30.40;75.50;;;;;;5009453;28;20042;-60
2023/07/09 12:04:16;;;;;;;7.55;4.13;;;30.40;75.00;;;;;;5013674;28;20029;-61
2023/07/09 12:06:43;;;;;;;6.57;3.63;;;30.60;72.80;;;;;;5015508;28;20052;-58
2023/07/09 12:09:20;;;;;;;7.13;4.30;;;30.80;73.30;;;;;;5013967;28;20044;-58
2023/07/09 12:11:48;;;;;;;10.82;3.88;;;31.10;76.10;;;;;;5012589;28;20129;-61
2023/07/09 12:14:21;;;;;;;7.00;3.85;;;31.20;73.30;;;;;;5016028;28;20099;-60
2023/07/09 12:16:50;;;;;;;7.38;3.80;;;31.30;72.60;;;;;;5019017;28;20037;-54
2023/07/09 12:19:18;;;;;;;7.25;4.25;;;31.10;73.70;;;;;;5026188;28;20050;-56
2023/07/09 12:21:46;;;;;;;9.52;3.83;;;30.90;72.40;;;;;;5018537;28;20438;-62
2023/07/09 12:24:24;;;;;;;9.40;4.13;;;30.60;74.10;;;;;;5021634;28;20033;-59
2023/07/09 12:26:58;;;;;;;8.18;4.53;;;30.40;72.70;;;;;;5007394;28;20746;-58
2023/07/09 12:29:28;;;;;;;8.23;4.00;;;30.30;74.00;;;;;;5019435;28;20654;-57
2023/07/09 12:31:56;;;;;;;8.63;3.85;;;30.20;76.00;;;;;;5013967;28;20110;-59
2023/07/09 12:34:24;;;;;;;10.75;5.25;;;30.00;76.20;;;;;;5015557;28;20045;-60
2023/07/09 12:36:51;;;;;;;8.90;4.75;;;29.70;75.40;;;;;;5011821;28;20038;-55
2023/07/09 12:39:23;;;;;;;8.20;4.55;;;29.70;79.60;;;;;;5020245;28;20068;-58
2023/07/09 12:41:49;;;;;;;5.80;4.00;;;29.60;79.70;;;;;;5007050;28;20071;-59
2023/07/09 12:44:19;;;;;;;7.57;4.80;;;29.70;76.60;;;;;;5020063;28;20159;-60
2023/07/09 12:46:47;;;;;;;7.80;4.40;;;29.90;77.60;;;;;;5017040;28;20084;-58
2023/07/09 12:49:27;;;;;;;11.10;4.65;;;30.20;77.60;;;;;;5023159;28;20570;-59
2023/07/09 12:51:58;;;;;;;7.82;4.30;;;30.50;75.10;;;;;;5008259;28;20441;-61
2023/07/09 12:54:24;;;;;;;11.55;4.70;;;30.80;76.00;;;;;;5019049;28;20050;-59
2023/07/09 12:56:54;;;;;;;7.80;4.53;;;30.90;78.20;;;;;;5017246;28;20042;-60
2023/07/09 12:59:28;;;;;;;11.82;4.70;;;30.80;73.40;;;;;;5019446;28;20161;-55
2023/07/09 13:02:18;;;;;;;6.38;3.88;;;30.60;74.30;;;;;;5013906;28;20107;-57
2023/07/09 13:04:44;;;;;;;6.97;4.45;;;30.60;75.10;;;;;;5023269;28;20120;-58
2023/07/09 13:07:26;;;;;;;8.40;4.90;;;30.40;76.40;;;;;;5016236;28;20059;-58